createdAt,value
2019-02-22T00:02:14.328Z,28.30
2019-02-22T00:04:41.608Z,27.67
2019-02-22T00:07:08.936Z,34.47
2019-02-22T00:09:36.261Z,31.20
2019-02-22T00:12:03.555Z,31.23
2019-02-22T00:14:30.878Z,28.67
2019-02-22T00:17:00.413Z,29.57
2019-02-22T00:19:27.752Z,29.43
2019-02-22T00:21:55.112Z,26.60
2019-02-22T00:24:24.573Z,27.53
2019-02-22T00:26:51.821Z,27.93
2019-02-22T00:29:19.140Z,28.03
2019-02-22T00:31:46.370Z,30.97
2019-02-22T00:34:13.697Z,31.07
2019-02-22T00:36:41.003Z,28.73
2019-02-22T00:41:54.167Z,33.63
2019-02-22T00:44:24.980Z,32.70
2019-02-22T00:46:52.244Z,33.47
2019-02-22T00:49:19.484Z,32.43
2019-02-22T00:51:47.068Z,31.47
2019-02-22T00:54:14.634Z,32.63
2019-02-22T00:56:45.151Z,33.20
2019-02-22T00:59:15.970Z,33.47
2019-02-22T01:01:43.291Z,29.97
2019-02-22T01:04:10.608Z,28.97
2019-02-22T01:06:38.152Z,30.83
2019-02-22T01:09:05.711Z,30.30
2019-02-22T01:11:33.276Z,30.53
2019-02-22T01:14:00.507Z,32.73
2019-02-22T01:16:27.736Z,30.73
2019-02-22T01:18:55.232Z,31.60
2019-02-22T01:21:22.457Z,31.43
2019-02-22T01:23:49.684Z,29.83
2019-02-22T01:26:16.909Z,30.77
2019-02-22T01:28:44.137Z,34.07
2019-02-22T01:31:11.348Z,33.63
2019-02-22T01:33:38.593Z,33.03
2019-02-22T01:36:06.099Z,34.13
2019-02-22T01:38:42.052Z,37.53
2019-02-22T01:41:09.196Z,41.80
2019-02-22T01:43:39.509Z,39.13
2019-02-22T01:46:06.633Z,32.60
2019-02-22T01:48:35.888Z,35.33
2019-02-22T01:51:03.126Z,35.27
2019-02-22T01:53:30.464Z,33.93
2019-02-22T01:55:58.035Z,33.80
2019-02-22T01:58:25.602Z,33.93
2019-02-22T02:00:52.914Z,32.80
2019-02-22T02:03:20.183Z,31.47
2019-02-22T02:05:47.416Z,31.00
2019-02-22T02:08:14.705Z,30.90
2019-02-22T02:10:41.928Z,29.20
2019-02-22T02:13:09.172Z,28.83
2019-02-22T02:15:39.230Z,29.40
2019-02-22T02:18:06.507Z,28.53
2019-02-22T02:20:34.057Z,29.30
2019-02-22T02:23:01.299Z,27.67
2019-02-22T02:25:28.528Z,28.80
2019-02-22T02:27:55.784Z,29.53
2019-02-22T02:30:23.007Z,28.43
2019-02-22T02:32:50.321Z,28.57
2019-02-22T02:35:17.871Z,27.50
2019-02-22T02:37:45.465Z,27.30
2019-02-22T02:40:12.766Z,28.03
2019-02-22T02:42:40.323Z,28.07
2019-02-22T02:45:07.659Z,28.37
2019-02-22T02:47:34.876Z,29.10
2019-02-22T02:50:02.392Z,29.90
2019-02-22T02:52:29.847Z,29.83
2019-02-22T02:54:57.088Z,30.47
2019-02-22T02:57:24.312Z,29.00
2019-02-22T02:59:51.551Z,29.60
2019-02-22T03:02:24.641Z,30.80
2019-02-22T03:04:51.906Z,30.43
2019-02-22T03:07:37.862Z,30.60
2019-02-22T03:10:06.540Z,29.90
2019-02-22T03:12:33.962Z,29.27
2019-02-22T03:15:04.729Z,30.93
2019-02-22T03:17:32.672Z,31.13
2019-02-22T03:19:59.928Z,31.40
2019-02-22T03:22:27.164Z,30.90
2019-02-22T03:24:54.843Z,32.27
2019-02-22T03:27:22.069Z,31.83
2019-02-22T03:29:49.655Z,32.60
2019-02-22T03:32:16.881Z,31.17
2019-02-22T03:34:44.457Z,31.17
2019-02-22T03:37:11.679Z,32.43
2019-02-22T03:39:38.905Z,31.07
2019-02-22T03:42:06.414Z,30.10
2019-02-22T03:44:33.737Z,30.27
2019-02-22T03:47:01.234Z,29.53
2019-02-22T03:49:28.790Z,28.33
2019-02-22T03:51:56.377Z,28.13
2019-02-22T03:54:23.615Z,28.77
2019-02-22T03:56:50.845Z,28.53
2019-02-22T03:59:18.069Z,29.53
2019-02-22T04:01:45.293Z,30.33
2019-02-22T04:04:12.532Z,30.13
2019-02-22T04:06:39.749Z,28.40
2019-02-22T04:09:09.947Z,32.33
2019-02-22T04:11:45.794Z,30.27
2019-02-22T04:14:06.389Z,29.70
2019-02-22T04:16:33.618Z,29.23
2019-02-22T04:19:01.131Z,30.57
2019-02-22T04:21:28.362Z,29.17
2019-02-22T04:23:55.672Z,29.37
2019-02-22T04:26:22.943Z,30.23
2019-02-22T04:28:52.966Z,29.17
2019-02-22T04:31:20.227Z,28.37
2019-02-22T04:33:47.456Z,30.83
2019-02-22T04:36:14.697Z,30.83
2019-02-22T04:38:41.929Z,30.37
2019-02-22T04:41:09.243Z,31.07
2019-02-22T04:43:36.469Z,32.33
2019-02-22T04:46:04.096Z,31.40
2019-02-22T04:48:31.638Z,32.13
2019-02-22T04:50:58.868Z,30.17
2019-02-22T04:53:26.102Z,31.17
2019-02-22T04:55:53.800Z,30.80
2019-02-22T04:58:21.402Z,27.10
2019-02-22T05:00:48.725Z,27.83
2019-02-22T05:03:15.945Z,27.90
2019-02-22T05:05:43.173Z,28.13
2019-02-22T05:08:10.713Z,28.57
2019-02-22T05:10:38.024Z,29.80
2019-02-22T05:13:05.243Z,29.53
2019-02-22T05:15:32.588Z,29.97
2019-02-22T05:18:00.092Z,28.00
2019-02-22T05:20:27.321Z,30.20
2019-02-22T05:23:03.438Z,26.80
2019-02-22T05:25:24.108Z,27.43
2019-02-22T05:27:51.325Z,28.30
2019-02-22T05:30:18.573Z,28.60
2019-02-22T05:32:46.066Z,28.70
2019-02-22T05:35:13.719Z,30.07
2019-02-22T05:37:40.961Z,30.23
2019-02-22T05:40:08.269Z,30.17
2019-02-22T05:42:35.585Z,30.23
2019-02-22T05:45:02.923Z,31.77
2019-02-22T05:47:30.165Z,31.17
2019-02-22T05:49:57.480Z,32.40
2019-02-22T05:52:24.772Z,31.10
2019-02-22T05:54:52.066Z,29.63
2019-02-22T05:57:19.606Z,31.07
2019-02-22T05:59:46.841Z,32.80
2019-02-22T06:02:14.733Z,31.93
2019-02-22T06:04:42.334Z,30.00
2019-02-22T06:07:09.669Z,32.03
2019-02-22T06:09:36.888Z,32.47
2019-02-22T06:12:04.165Z,30.90
2019-02-22T06:14:31.695Z,29.60
2019-02-22T06:16:59.295Z,29.30
2019-02-22T06:19:26.430Z,30.07
2019-02-22T06:21:53.979Z,29.13
2019-02-22T06:24:21.202Z,29.63
2019-02-22T06:26:48.444Z,31.87
2019-02-22T06:29:15.787Z,30.47
2019-02-22T06:31:43.128Z,32.33
2019-02-22T06:34:10.356Z,34.93
2019-02-22T06:36:37.597Z,32.33
2019-02-22T06:39:05.392Z,31.70
2019-02-22T06:41:32.644Z,30.70
2019-02-22T06:43:59.917Z,31.03
2019-02-22T06:46:27.160Z,32.80
2019-02-22T06:48:54.759Z,32.30
2019-02-22T06:51:22.032Z,31.43
2019-02-22T06:53:49.256Z,29.77
2019-02-22T06:56:16.502Z,33.27
2019-02-22T06:58:43.858Z,33.23
2019-02-22T07:01:11.438Z,31.97
2019-02-22T07:03:39.210Z,32.77
2019-02-22T07:06:06.544Z,36.00
2019-02-22T07:08:33.792Z,36.57
2019-02-22T07:11:32.682Z,37.30
2019-02-22T07:14:00.245Z,39.13
2019-02-22T07:16:27.492Z,36.47
2019-02-22T07:18:55.110Z,36.87
2019-02-22T07:21:22.412Z,37.30
2019-02-22T07:23:49.724Z,35.43
2019-02-22T07:26:16.979Z,42.20
2019-02-22T07:28:44.471Z,37.17
2019-02-22T07:31:11.756Z,33.57
2019-02-22T07:33:39.285Z,29.73
2019-02-22T07:36:06.501Z,30.97
2019-02-22T07:38:33.734Z,29.53
2019-02-22T07:41:01.266Z,31.37
2019-02-22T07:43:30.088Z,35.80
2019-02-22T07:45:57.348Z,38.97
2019-02-22T07:48:25.196Z,35.83
2019-02-22T07:50:57.622Z,33.80
2019-02-22T07:53:21.847Z,35.33
2019-02-22T07:55:49.080Z,34.43
2019-02-22T07:58:16.388Z,33.80
2019-02-22T08:00:43.925Z,37.63
2019-02-22T08:03:11.172Z,37.80
2019-02-22T08:05:38.396Z,41.10
2019-02-22T08:08:05.545Z,39.90
2019-02-22T08:10:33.075Z,40.60
2019-02-22T08:13:00.345Z,41.30
2019-02-22T08:15:27.581Z,42.80
2019-02-22T08:17:55.239Z,41.80
2019-02-22T08:20:22.895Z,45.60
2019-02-22T08:22:50.580Z,37.33
2019-02-22T08:25:17.900Z,39.13
2019-02-22T08:27:53.008Z,36.50
2019-02-22T08:30:14.191Z,38.33
2019-02-22T08:32:41.593Z,39.57
2019-02-22T08:35:09.179Z,38.17
2019-02-22T08:37:36.515Z,37.23
2019-02-22T08:40:04.355Z,41.07
2019-02-22T08:42:31.980Z,40.50
2019-02-22T08:44:59.548Z,35.80
2019-02-22T08:47:26.819Z,34.10
2019-02-22T08:49:54.035Z,36.70
2019-02-22T08:52:21.625Z,38.10
2019-02-22T08:54:49.247Z,37.67
2019-02-22T08:57:16.492Z,35.67
2019-02-22T08:59:43.721Z,36.77
2019-02-22T09:02:10.963Z,37.87
2019-02-22T09:04:38.569Z,34.87
2019-02-22T09:07:05.798Z,33.73
2019-02-22T09:09:33.682Z,38.63
2019-02-22T09:12:00.992Z,39.37
2019-02-22T09:14:28.248Z,37.87
2019-02-22T09:16:55.735Z,39.63
2019-02-22T09:19:23.301Z,42.37
2019-02-22T09:21:50.853Z,41.47
2019-02-22T09:24:18.071Z,39.17
2019-02-22T09:26:45.299Z,38.90
2019-02-22T09:29:12.836Z,35.93
2019-02-22T09:31:40.140Z,36.50
2019-02-22T09:34:07.626Z,34.73
2019-02-22T09:36:35.183Z,30.67
2019-02-22T09:39:04.490Z,25.33
2019-02-22T09:41:32.048Z,23.07
2019-02-22T09:43:59.332Z,19.07
2019-02-22T09:46:26.967Z,12.70
2019-02-22T09:48:54.313Z,13.60
2019-02-22T09:51:21.548Z,16.57
2019-02-22T09:53:49.149Z,12.13
2019-02-22T09:56:16.792Z,11.47
2019-02-22T09:58:44.449Z,10.30
2019-02-22T10:01:12.007Z,10.90
2019-02-22T10:03:39.256Z,10.73
2019-02-22T10:06:06.480Z,11.07
2019-02-22T10:08:34.105Z,10.53
2019-02-22T10:11:01.396Z,10.60
2019-02-22T10:13:28.664Z,10.30
2019-02-22T10:15:55.885Z,10.67
2019-02-22T10:18:23.238Z,9.77
2019-02-22T10:20:50.736Z,10.90
2019-02-22T10:23:17.988Z,10.10
2019-02-22T10:25:45.216Z,10.50
2019-02-22T10:28:17.822Z,10.30
2019-02-22T10:30:41.612Z,9.83
2019-02-22T10:33:09.560Z,10.00
2019-02-22T10:35:37.224Z,10.10
2019-02-22T10:38:04.781Z,10.33
2019-02-22T10:40:32.009Z,10.47
2019-02-22T10:42:59.589Z,10.73
2019-02-22T10:45:26.813Z,10.10
2019-02-22T10:47:54.133Z,9.57
2019-02-22T10:50:21.777Z,10.70
2019-02-22T10:52:49.313Z,7.63
2019-02-22T10:55:16.890Z,9.47
2019-02-22T10:57:44.427Z,8.67
2019-02-22T11:00:12.524Z,9.07
2019-02-22T11:02:40.085Z,9.63
2019-02-22T11:05:07.615Z,8.70
2019-02-22T11:07:37.088Z,8.50
2019-02-22T11:10:05.291Z,8.80
2019-02-22T11:12:32.851Z,8.27
2019-02-22T11:15:00.323Z,8.67
2019-02-22T11:17:28.059Z,7.53
2019-02-22T11:19:55.942Z,7.60
2019-02-22T11:22:23.169Z,9.37
2019-02-22T11:24:50.492Z,9.90
2019-02-22T11:27:18.104Z,8.67
2019-02-22T11:29:45.346Z,8.13
2019-02-22T11:32:12.564Z,8.13
2019-02-22T11:34:39.808Z,9.20
2019-02-22T11:37:07.051Z,7.40
2019-02-22T11:39:34.668Z,5.67
2019-02-22T11:42:01.899Z,3.97
2019-02-22T11:44:39.654Z,3.50
2019-02-22T11:46:58.815Z,3.50
2019-02-22T11:49:26.284Z,3.80
2019-02-22T11:51:55.917Z,4.70
2019-02-22T11:54:23.001Z,4.07
2019-02-22T11:56:50.563Z,4.93
2019-02-22T11:59:18.115Z,4.80
2019-02-22T12:01:45.328Z,5.27
2019-02-22T12:04:12.588Z,5.13
2019-02-22T12:06:40.585Z,4.67
2019-02-22T12:09:07.844Z,4.80
2019-02-22T12:11:35.155Z,4.80
2019-02-22T12:14:02.383Z,4.97
2019-02-22T12:16:29.900Z,5.27
2019-02-22T12:18:57.482Z,5.13
2019-02-22T12:21:25.020Z,5.80
2019-02-22T12:23:54.142Z,5.97
2019-02-22T12:26:21.785Z,6.20
2019-02-22T12:28:49.465Z,6.60
2019-02-22T12:31:16.682Z,6.40
2019-02-22T12:33:50.461Z,6.87
2019-02-22T12:36:18.144Z,7.10
2019-02-22T12:38:48.591Z,7.20
2019-02-22T12:41:16.585Z,6.03
2019-02-22T12:43:46.706Z,5.57
2019-02-22T12:46:14.324Z,5.60
2019-02-22T12:48:44.322Z,6.63
2019-02-22T12:51:11.909Z,5.93
2019-02-22T12:53:39.476Z,6.57
2019-02-22T12:56:06.832Z,6.00
2019-02-22T12:58:34.194Z,7.80
2019-02-22T13:01:01.437Z,6.00
2019-02-22T13:03:28.799Z,6.30
2019-02-22T13:05:56.335Z,6.00
2019-02-22T13:08:23.675Z,4.63
2019-02-22T13:10:50.929Z,5.20
2019-02-22T13:13:18.161Z,6.00
2019-02-22T13:15:46.032Z,5.27
2019-02-22T13:18:13.392Z,5.13
2019-02-22T13:20:40.628Z,3.73
2019-02-22T13:23:07.872Z,3.90
2019-02-22T13:25:36.408Z,3.53
2019-02-22T13:28:03.631Z,3.00
2019-02-22T13:30:31.209Z,3.17
2019-02-22T13:32:58.553Z,3.40
2019-02-22T13:35:25.799Z,3.00
2019-02-22T13:37:53.381Z,2.93
2019-02-22T13:40:20.605Z,2.70
2019-02-22T13:42:48.213Z,2.30
2019-02-22T13:45:25.980Z,2.20
2019-02-22T13:47:44.691Z,1.87
2019-02-22T13:50:12.963Z,2.07
2019-02-22T13:52:40.315Z,1.90
2019-02-22T13:55:07.829Z,1.97
2019-02-22T13:57:35.054Z,2.00
2019-02-22T14:00:02.297Z,2.00
2019-02-22T14:02:29.872Z,2.20
2019-02-22T14:04:57.444Z,2.17
2019-02-22T14:07:25.007Z,2.43
2019-02-22T14:09:52.600Z,2.20
2019-02-22T14:12:20.127Z,2.30
2019-02-22T14:14:47.349Z,2.00
2019-02-22T14:17:14.829Z,2.10
2019-02-22T14:19:42.085Z,2.33
2019-02-22T14:22:09.646Z,2.00
2019-02-22T14:24:36.903Z,1.80
2019-02-22T14:27:04.459Z,2.20
2019-02-22T14:29:32.533Z,1.90
2019-02-22T14:32:00.083Z,1.77
2019-02-22T14:34:27.640Z,1.90
2019-02-22T14:36:54.990Z,1.87
2019-02-22T14:39:22.573Z,1.57
2019-02-22T14:41:49.797Z,1.70
2019-02-22T14:44:17.148Z,1.53
2019-02-22T14:46:44.733Z,1.60
2019-02-22T14:49:12.106Z,1.57
2019-02-22T14:51:39.328Z,1.67
2019-02-22T14:54:06.988Z,1.90
2019-02-22T14:56:34.223Z,1.87
2019-02-22T14:59:01.796Z,2.20
2019-02-22T15:01:29.024Z,2.53
2019-02-22T15:03:56.920Z,2.83
2019-02-22T15:06:24.172Z,2.40
2019-02-22T15:08:51.400Z,3.90
2019-02-22T15:11:18.621Z,1.47
2019-02-22T15:13:45.846Z,2.30
2019-02-22T15:16:32.620Z,2.70
2019-02-22T15:19:00.193Z,1.97
2019-02-22T15:21:27.852Z,2.90
2019-02-22T15:23:55.103Z,2.37
2019-02-22T15:26:22.971Z,2.50
2019-02-22T15:28:50.553Z,1.77
2019-02-22T15:31:20.747Z,2.73
2019-02-22T15:33:48.178Z,1.97
2019-02-22T15:36:16.285Z,2.60
2019-02-22T15:38:43.951Z,5.20
2019-02-22T15:41:11.176Z,4.17
2019-02-22T15:43:38.445Z,3.83
2019-02-22T15:46:12.280Z,4.80
2019-02-22T15:48:35.197Z,3.03
2019-02-22T15:51:07.267Z,2.60
2019-02-22T15:53:34.126Z,5.47
2019-02-22T15:56:13.801Z,5.33
2019-02-22T15:58:41.068Z,3.77
2019-02-22T16:01:08.297Z,3.20
2019-02-22T16:03:53.761Z,6.83
2019-02-22T16:06:25.904Z,4.80
2019-02-22T16:08:53.220Z,4.50
2019-02-22T16:11:22.560Z,9.07
2019-02-22T16:13:55.656Z,5.87
2019-02-22T16:16:23.632Z,4.87
2019-02-22T16:18:51.372Z,5.63
2019-02-22T16:21:18.601Z,4.80
2019-02-22T16:23:46.184Z,8.63
2019-02-22T16:26:17.898Z,5.43
2019-02-22T16:28:45.505Z,6.63
2019-02-22T16:31:12.733Z,5.97
2019-02-22T16:33:39.967Z,5.87
2019-02-22T16:36:07.192Z,6.00
2019-02-22T16:38:34.709Z,6.13
2019-02-22T16:41:01.960Z,5.73
2019-02-22T16:43:29.520Z,6.07
2019-02-22T16:45:56.797Z,6.43
2019-02-22T16:48:24.336Z,17.50
2019-02-22T16:50:51.924Z,16.70
2019-02-22T16:53:19.236Z,18.13
2019-02-22T16:55:46.497Z,7.47
2019-02-22T16:58:14.055Z,6.50
2019-02-22T17:00:41.617Z,7.03
2019-02-22T17:03:09.176Z,6.53
2019-02-22T17:05:36.530Z,6.13
2019-02-22T17:08:03.664Z,7.20
2019-02-22T17:10:30.931Z,6.43
2019-02-22T17:12:58.153Z,6.40
2019-02-22T17:15:25.755Z,6.33
2019-02-22T17:17:53.396Z,6.80
2019-02-22T17:20:20.628Z,5.80
2019-02-22T17:22:47.951Z,15.90
2019-02-22T17:25:15.224Z,19.77
2019-02-22T17:27:42.456Z,15.07
2019-02-22T17:30:11.495Z,10.40
2019-02-22T17:32:39.065Z,11.73
2019-02-22T17:35:06.312Z,7.83
2019-02-22T17:37:33.548Z,23.50
2019-02-22T17:40:01.128Z,9.70
2019-02-22T17:42:28.684Z,11.40
2019-02-22T17:44:55.903Z,8.83
2019-02-22T17:47:23.499Z,8.23
2019-02-22T17:49:50.718Z,7.50
2019-02-22T17:52:17.952Z,8.03
2019-02-22T17:54:45.175Z,8.13
2019-02-22T17:57:13.344Z,10.77
2019-02-22T17:59:40.879Z,10.30
2019-02-22T18:02:08.125Z,11.50
2019-02-22T18:04:35.356Z,11.67
2019-02-22T18:07:02.599Z,14.97
2019-02-22T18:09:30.091Z,14.17
2019-02-22T18:11:57.316Z,11.83
2019-02-22T18:14:26.156Z,9.90
2019-02-22T18:16:53.688Z,9.13
2019-02-22T18:19:21.248Z,8.70
2019-02-22T18:21:48.483Z,7.77
2019-02-22T18:24:15.888Z,8.20
2019-02-22T18:26:43.624Z,7.70
2019-02-22T18:29:11.184Z,8.30
2019-02-22T18:31:38.963Z,8.03
2019-02-22T18:34:06.318Z,7.80
2019-02-22T18:36:33.564Z,8.27
2019-02-22T18:39:01.117Z,9.20
2019-02-22T18:41:28.680Z,11.03
2019-02-22T18:43:56.331Z,10.73
2019-02-22T18:46:23.605Z,9.57
2019-02-22T18:48:51.249Z,10.07
2019-02-22T18:51:18.903Z,9.43
2019-02-22T18:53:46.465Z,9.70
2019-02-22T18:56:13.792Z,9.03
2019-02-22T18:58:41.136Z,7.53
2019-02-22T19:01:08.735Z,7.97
2019-02-22T19:03:36.289Z,7.73
2019-02-22T19:06:04.263Z,7.93
2019-02-22T19:08:32.581Z,9.40
2019-02-22T19:11:00.044Z,8.60
2019-02-22T19:13:27.549Z,8.73
2019-02-22T19:15:55.533Z,9.10
2019-02-22T19:18:23.184Z,9.30
2019-02-22T19:20:50.405Z,8.80
2019-02-22T19:23:18.321Z,8.77
2019-02-22T19:25:45.543Z,9.70
2019-02-22T19:28:12.772Z,9.80
2019-02-22T19:30:40.001Z,10.50
2019-02-22T19:33:07.832Z,10.63
2019-02-22T19:35:35.142Z,10.43
2019-02-22T19:38:02.732Z,10.33
2019-02-22T19:40:29.959Z,9.47
2019-02-22T19:42:57.539Z,10.47
2019-02-22T19:45:24.807Z,10.17
2019-02-22T19:47:52.044Z,9.70
2019-02-22T19:50:19.608Z,9.27
2019-02-22T19:52:47.165Z,9.47
2019-02-22T19:55:14.436Z,8.70
2019-02-22T19:57:41.994Z,8.73
2019-02-22T20:00:11.632Z,8.63
2019-02-22T20:02:38.863Z,9.40
2019-02-22T20:05:06.495Z,9.60
2019-02-22T20:07:33.728Z,9.93
2019-02-22T20:10:00.962Z,9.80
2019-02-22T20:12:29.226Z,10.30
2019-02-22T20:14:57.041Z,9.97
2019-02-22T20:17:24.272Z,10.13
2019-02-22T20:19:51.852Z,10.30
2019-02-22T20:22:19.131Z,10.53
2019-02-22T20:24:46.353Z,10.03
2019-02-22T20:27:13.918Z,10.00
2019-02-22T20:29:41.468Z,10.60
2019-02-22T20:32:09.027Z,10.63
2019-02-22T20:34:36.255Z,11.93
2019-02-22T20:37:03.652Z,13.80
2019-02-22T20:39:30.968Z,10.67
2019-02-22T20:41:58.566Z,12.07
2019-02-22T20:44:25.781Z,11.20
2019-02-22T20:46:53.355Z,11.43
2019-02-22T20:49:20.584Z,11.10
2019-02-22T20:51:48.069Z,11.60
2019-02-22T20:54:17.173Z,11.87
2019-02-22T20:56:44.470Z,12.17
2019-02-22T20:59:12.106Z,12.83
2019-02-22T21:01:39.321Z,12.03
2019-02-22T21:04:06.741Z,11.40
2019-02-22T21:06:33.955Z,12.03
2019-02-22T21:09:01.229Z,10.93
2019-02-22T21:11:28.557Z,11.40
2019-02-22T21:13:55.817Z,11.77
2019-02-22T21:16:26.338Z,11.60
2019-02-22T21:18:53.879Z,15.40
2019-02-22T21:21:21.540Z,13.50
2019-02-22T21:23:48.809Z,13.97
2019-02-22T21:26:16.072Z,13.53
2019-02-22T21:28:43.710Z,12.67
2019-02-22T21:31:10.932Z,13.93
2019-02-22T21:33:38.488Z,12.93
2019-02-22T21:36:05.709Z,12.83
2019-02-22T21:38:32.968Z,13.37
2019-02-22T21:41:00.629Z,13.00
2019-02-22T21:43:28.235Z,13.07
2019-02-22T21:45:55.465Z,13.23
2019-02-22T21:48:27.639Z,13.80
2019-02-22T21:50:52.243Z,12.93
2019-02-22T21:53:19.516Z,14.47
2019-02-22T21:55:47.063Z,13.57
2019-02-22T21:58:14.336Z,13.33
2019-02-22T22:00:41.553Z,12.93
2019-02-22T22:03:09.152Z,12.80
2019-02-22T22:05:36.702Z,13.23
2019-02-22T22:08:04.243Z,12.90
2019-02-22T22:10:31.801Z,12.73
2019-02-22T22:12:58.986Z,11.83
2019-02-22T22:15:27.661Z,11.93
2019-02-22T22:17:55.296Z,13.83
2019-02-22T22:20:22.858Z,13.60
2019-02-22T22:22:50.160Z,14.27
2019-02-22T22:25:17.384Z,14.30
2019-02-22T22:27:44.918Z,15.60
2019-02-22T22:30:12.574Z,14.47
2019-02-22T22:32:40.139Z,13.97
2019-02-22T22:35:08.971Z,15.60
2019-02-22T22:37:36.196Z,15.57
2019-02-22T22:40:03.940Z,14.40
2019-02-22T22:42:31.495Z,13.60
2019-02-22T22:44:59.057Z,14.90
2019-02-22T22:47:27.619Z,13.47
2019-02-22T22:49:59.296Z,12.43
2019-02-22T22:52:26.520Z,13.00
2019-02-22T22:54:54.110Z,12.97
2019-02-22T22:57:21.334Z,13.83
2019-02-22T22:59:48.664Z,13.10
2019-02-22T23:02:15.884Z,14.13
2019-02-22T23:04:43.147Z,14.17
2019-02-22T23:07:10.463Z,15.80
2019-02-22T23:09:38.024Z,13.03
2019-02-22T23:12:05.504Z,15.27
2019-02-22T23:14:32.835Z,13.17
2019-02-22T23:17:00.103Z,12.83
2019-02-22T23:19:27.653Z,14.07
2019-02-22T23:21:55.208Z,12.60
2019-02-22T23:24:22.875Z,14.30
2019-02-22T23:26:50.096Z,14.00
2019-02-22T23:29:17.335Z,13.80
2019-02-22T23:31:44.572Z,13.57
2019-02-22T23:34:11.852Z,15.43
2019-02-22T23:36:39.436Z,15.67
2019-02-22T23:39:07.917Z,14.77
2019-02-22T23:41:35.138Z,14.77
2019-02-22T23:44:02.937Z,16.60
2019-02-22T23:46:30.494Z,15.87
2019-02-22T23:48:57.737Z,18.03
2019-02-22T23:51:25.304Z,16.60
2019-02-22T23:53:52.521Z,17.00
2019-02-22T23:56:20.116Z,17.70
2019-02-22T23:58:47.335Z,18.47
